createdAt,value
2024-05-09T00:00:35.491Z,96.86
2024-05-09T00:01:29.244Z,57.77
2024-05-09T00:02:29.266Z,72.54
2024-05-09T00:03:29.290Z,90.70
2024-05-09T00:04:29.261Z,109.40
2024-05-09T00:05:29.332Z,128.06
2024-05-09T00:06:29.226Z,119.72
2024-05-09T00:07:29.227Z,108.08
2024-05-09T00:08:29.409Z,99.48
2024-05-09T00:09:29.234Z,92.38
2024-05-09T00:10:35.807Z,87.11
2024-05-09T00:11:29.329Z,87.14
2024-05-09T00:12:29.268Z,82.91
2024-05-09T00:13:29.259Z,78.00
2024-05-09T00:14:29.304Z,72.59
2024-05-09T00:15:29.240Z,70.28
2024-05-09T00:16:29.241Z,66.71
2024-05-09T00:17:29.399Z,63.94
2024-05-09T00:18:29.330Z,61.98
2024-05-09T00:19:29.348Z,60.42
2024-05-09T00:20:37.209Z,58.54
2024-05-09T00:21:29.255Z,58.64
2024-05-09T00:22:29.260Z,58.83
2024-05-09T00:23:29.430Z,57.46
2024-05-09T00:24:29.263Z,54.65
2024-05-09T00:25:29.256Z,52.84
2024-05-09T00:26:29.366Z,51.85
2024-05-09T00:27:29.264Z,51.03
2024-05-09T00:28:29.267Z,49.70
2024-05-09T00:29:29.353Z,50.92
2024-05-09T00:30:34.428Z,50.00
2024-05-09T00:31:29.273Z,50.16
2024-05-09T00:32:29.426Z,50.49
2024-05-09T00:33:29.535Z,50.99
2024-05-09T00:34:29.516Z,50.37
2024-05-09T00:35:29.407Z,51.14
2024-05-09T00:36:29.280Z,50.26
2024-05-09T00:37:29.276Z,50.85
2024-05-09T00:38:29.314Z,51.56
2024-05-09T00:39:29.278Z,51.12
2024-05-09T00:40:35.784Z,50.73
2024-05-09T00:41:29.378Z,50.89
2024-05-09T00:42:29.323Z,51.37
2024-05-09T00:43:29.303Z,51.60
2024-05-09T00:44:29.362Z,51.59
2024-05-09T00:45:29.284Z,52.07
2024-05-09T00:46:29.387Z,51.43
2024-05-09T00:47:29.421Z,51.41
2024-05-09T00:48:29.452Z,50.59
2024-05-09T00:49:29.511Z,50.22
2024-05-09T00:50:35.745Z,50.21
2024-05-09T00:51:29.299Z,50.40
2024-05-09T00:52:29.312Z,51.00
2024-05-09T00:53:29.349Z,51.64
2024-05-09T00:54:29.336Z,51.63
2024-05-09T00:55:29.300Z,50.65
2024-05-09T00:56:29.397Z,50.45
2024-05-09T00:57:29.298Z,50.16
2024-05-09T00:58:29.293Z,51.10
2024-05-09T00:59:29.462Z,50.87
2024-05-09T01:00:35.777Z,50.20
2024-05-09T01:01:29.383Z,50.38
2024-05-09T01:02:29.398Z,50.60
2024-05-09T01:03:29.548Z,50.89
2024-05-09T01:04:29.353Z,50.76
2024-05-09T01:05:29.362Z,49.42
2024-05-09T01:06:29.336Z,50.40
2024-05-09T01:07:29.299Z,51.03
2024-05-09T01:08:29.364Z,50.06
2024-05-09T01:09:29.307Z,51.29
2024-05-09T01:10:34.354Z,51.72
2024-05-09T01:11:29.387Z,51.87
2024-05-09T01:12:29.356Z,52.22
2024-05-09T01:13:29.314Z,52.39
2024-05-09T01:14:29.424Z,52.63
2024-05-09T01:15:29.322Z,52.59
2024-05-09T01:16:29.322Z,51.03
2024-05-09T01:17:29.552Z,52.35
2024-05-09T01:18:29.402Z,52.46
2024-05-09T01:19:29.421Z,52.12
2024-05-09T01:20:37.517Z,51.82
2024-05-09T01:21:29.348Z,51.97
2024-05-09T01:22:29.339Z,52.52
2024-05-09T01:23:29.376Z,52.86
2024-05-09T01:24:29.375Z,53.68
2024-05-09T01:25:29.351Z,53.22
2024-05-09T01:26:29.418Z,54.45
2024-05-09T01:27:29.335Z,53.92
2024-05-09T01:28:29.354Z,54.28
2024-05-09T01:29:29.447Z,53.65
2024-05-09T01:30:34.704Z,53.94
2024-05-09T01:31:29.416Z,54.10
2024-05-09T01:32:29.489Z,54.73
2024-05-09T01:33:29.671Z,54.91
2024-05-09T01:34:29.386Z,55.52
2024-05-09T01:35:29.501Z,56.28
2024-05-09T01:36:29.360Z,56.45
2024-05-09T01:37:29.368Z,54.01
2024-05-09T01:38:29.540Z,54.23
2024-05-09T01:39:29.370Z,53.87
2024-05-09T01:40:37.049Z,54.11
2024-05-09T01:41:29.459Z,54.25
2024-05-09T01:42:29.392Z,54.61
2024-05-09T01:43:29.380Z,54.87
2024-05-09T01:44:29.470Z,55.26
2024-05-09T01:45:29.381Z,53.59
2024-05-09T01:46:29.388Z,53.58
2024-05-09T01:47:29.626Z,54.07
2024-05-09T01:48:29.486Z,53.20
2024-05-09T01:49:29.479Z,52.46
2024-05-09T01:50:37.822Z,52.33
2024-05-09T01:51:29.408Z,52.50
2024-05-09T01:52:29.410Z,53.00
2024-05-09T01:53:29.437Z,53.75
2024-05-09T01:54:29.410Z,54.10
2024-05-09T01:55:29.413Z,54.36
2024-05-09T01:56:29.512Z,55.11
2024-05-09T01:57:29.411Z,53.67
2024-05-09T01:58:29.419Z,54.32
2024-05-09T01:59:29.454Z,53.39
2024-05-09T02:00:38.199Z,54.40
2024-05-09T02:01:29.527Z,54.55
2024-05-09T02:02:29.604Z,54.70
2024-05-09T02:03:29.631Z,55.41
2024-05-09T02:04:29.634Z,55.95
2024-05-09T02:05:29.487Z,56.26
2024-05-09T02:06:29.457Z,55.98
2024-05-09T02:07:29.439Z,54.91
2024-05-09T02:08:29.456Z,55.30
2024-05-09T02:09:29.433Z,54.89
2024-05-09T02:10:32.711Z,55.12
2024-05-09T02:11:29.565Z,55.21
2024-05-09T02:12:29.515Z,55.31
2024-05-09T02:13:29.439Z,55.19
2024-05-09T02:14:30.294Z,55.02
2024-05-09T02:15:29.452Z,54.27
2024-05-09T02:16:29.443Z,53.55
2024-05-09T02:17:29.628Z,53.20
2024-05-09T02:18:29.549Z,52.94
2024-05-09T02:19:29.511Z,52.38
2024-05-09T02:20:34.178Z,51.76
2024-05-09T02:21:29.516Z,51.89
2024-05-09T02:22:29.512Z,52.26
2024-05-09T02:23:29.541Z,52.52
2024-05-09T02:24:29.506Z,51.92
2024-05-09T02:25:29.506Z,52.42
2024-05-09T02:26:29.567Z,51.71
2024-05-09T02:27:29.511Z,50.27
2024-05-09T02:28:29.521Z,50.00
2024-05-09T02:29:29.738Z,51.10
2024-05-09T02:30:36.473Z,51.73
2024-05-09T02:31:29.530Z,51.87
2024-05-09T02:32:29.700Z,52.38
2024-05-09T02:33:29.646Z,52.67
2024-05-09T02:34:29.560Z,52.82
2024-05-09T02:35:29.652Z,52.99
2024-05-09T02:36:29.530Z,53.11
2024-05-09T02:37:29.528Z,52.40
2024-05-09T02:38:29.627Z,51.73
2024-05-09T02:39:29.550Z,52.02
2024-05-09T02:40:36.552Z,52.59
2024-05-09T02:41:29.597Z,52.76
2024-05-09T02:42:29.553Z,53.27
2024-05-09T02:43:29.545Z,53.61
2024-05-09T02:44:29.663Z,53.85
2024-05-09T02:45:29.549Z,54.94
2024-05-09T02:46:29.548Z,54.94
2024-05-09T02:47:29.738Z,54.92
2024-05-09T02:48:29.619Z,53.97
2024-05-09T02:49:29.628Z,54.08
2024-05-09T02:50:36.885Z,54.00
2024-05-09T02:51:29.563Z,54.17
2024-05-09T02:52:29.554Z,54.80
2024-05-09T02:53:29.562Z,55.44
2024-05-09T02:54:29.648Z,55.70
2024-05-09T02:55:29.560Z,55.28
2024-05-09T02:56:29.623Z,56.64
2024-05-09T02:57:29.561Z,55.66
2024-05-09T02:58:29.558Z,55.38
2024-05-09T02:59:29.679Z,56.90
2024-05-09T03:00:37.474Z,56.17
2024-05-09T03:01:29.675Z,56.33
2024-05-09T03:02:29.656Z,56.74
2024-05-09T03:03:29.735Z,57.22
2024-05-09T03:04:29.632Z,57.00
2024-05-09T03:05:29.633Z,57.69
2024-05-09T03:06:29.578Z,57.09
2024-05-09T03:07:29.604Z,56.50
2024-05-09T03:08:29.619Z,56.35
2024-05-09T03:09:29.578Z,55.44
2024-05-09T03:10:35.498Z,54.65
2024-05-09T03:11:29.750Z,54.80
2024-05-09T03:12:29.658Z,55.30
2024-05-09T03:13:29.593Z,55.65
2024-05-09T03:14:29.656Z,55.41
2024-05-09T03:15:29.596Z,55.11
2024-05-09T03:16:29.602Z,53.96
2024-05-09T03:17:29.756Z,54.05
2024-05-09T03:18:29.722Z,53.37
2024-05-09T03:19:29.736Z,54.15
2024-05-09T03:21:28.606Z,52.46
2024-05-09T03:22:29.620Z,52.73
2024-05-09T03:23:29.646Z,52.60
2024-05-09T03:24:29.607Z,52.23
2024-05-09T03:25:29.614Z,51.47
2024-05-09T03:26:29.735Z,51.41
2024-05-09T03:27:29.613Z,52.18
2024-05-09T03:28:29.618Z,51.57
2024-05-09T03:29:29.776Z,52.46
2024-05-09T03:30:38.531Z,52.36
2024-05-09T03:31:29.617Z,52.48
2024-05-09T03:32:29.690Z,52.92
2024-05-09T03:33:29.775Z,53.11
2024-05-09T03:34:29.672Z,53.36
2024-05-09T03:35:29.655Z,54.17
2024-05-09T03:36:29.631Z,54.32
2024-05-09T03:37:29.625Z,55.58
2024-05-09T03:38:29.667Z,53.08
2024-05-09T03:39:29.640Z,54.43
2024-05-09T03:40:31.082Z,54.14
2024-05-09T03:41:29.772Z,55.87
2024-05-09T03:42:29.662Z,56.88
2024-05-09T03:43:29.673Z,57.41
2024-05-09T03:44:29.699Z,56.12
2024-05-09T03:45:29.658Z,55.20
2024-05-09T03:46:29.643Z,55.38
2024-05-09T03:47:29.805Z,55.39
2024-05-09T03:48:29.821Z,54.74
2024-05-09T03:49:29.759Z,54.96
2024-05-09T03:50:33.800Z,52.94
2024-05-09T03:51:29.665Z,53.13
2024-05-09T03:52:29.661Z,53.60
2024-05-09T03:53:29.682Z,54.58
2024-05-09T03:54:29.654Z,54.87
2024-05-09T03:55:29.666Z,55.57
2024-05-09T03:56:29.762Z,56.77
2024-05-09T03:57:29.657Z,55.30
2024-05-09T03:58:29.686Z,54.45
2024-05-09T03:59:29.767Z,55.41
2024-05-09T04:01:28.751Z,54.22
2024-05-09T04:02:29.778Z,53.49
2024-05-09T04:03:29.869Z,53.92
2024-05-09T04:04:29.803Z,52.77
2024-05-09T04:05:29.838Z,53.83
2024-05-09T04:06:29.676Z,53.08
2024-05-09T04:07:29.676Z,53.79
2024-05-09T04:08:29.738Z,53.79
2024-05-09T04:09:29.679Z,53.71
2024-05-09T04:10:33.405Z,53.70
2024-05-09T04:11:29.761Z,53.88
2024-05-09T04:12:29.754Z,54.41
2024-05-09T04:13:29.680Z,55.11
2024-05-09T04:14:29.938Z,55.71
2024-05-09T04:15:29.724Z,55.73
2024-05-09T04:16:29.681Z,55.43
2024-05-09T04:17:29.896Z,55.96
2024-05-09T04:18:29.815Z,56.17
2024-05-09T04:19:29.871Z,56.38
2024-05-09T04:20:37.460Z,54.73
2024-05-09T04:21:29.698Z,54.92
2024-05-09T04:22:29.714Z,55.66
2024-05-09T04:23:29.758Z,56.03
2024-05-09T04:24:29.697Z,57.33
2024-05-09T04:25:29.697Z,57.68
2024-05-09T04:26:29.841Z,57.16
2024-05-09T04:27:29.701Z,55.89
2024-05-09T04:28:29.710Z,56.44
2024-05-09T04:29:30.035Z,54.55
2024-05-09T04:30:36.722Z,54.71
2024-05-09T04:31:29.748Z,54.92
2024-05-09T04:32:29.804Z,55.48
2024-05-09T04:33:30.034Z,56.09
2024-05-09T04:34:29.821Z,56.58
2024-05-09T04:35:29.848Z,56.90
2024-05-09T04:36:29.722Z,55.30
2024-05-09T04:37:29.724Z,54.83
2024-05-09T04:38:29.760Z,55.06
2024-05-09T04:39:29.732Z,55.35
2024-05-09T04:40:34.173Z,54.43
2024-05-09T04:41:29.794Z,54.59
2024-05-09T04:42:29.734Z,55.06
2024-05-09T04:43:29.733Z,55.58
2024-05-09T04:44:29.829Z,56.19
2024-05-09T04:45:29.735Z,56.63
2024-05-09T04:46:29.742Z,56.00
2024-05-09T04:47:29.911Z,56.38
2024-05-09T04:48:30.000Z,56.33
2024-05-09T04:49:37.333Z,50.00
2024-05-09T04:50:39.647Z,50.00
2024-05-09T04:51:38.283Z,50.00
2024-05-09T04:52:38.291Z,50.00
2024-05-09T04:53:38.430Z,50.00
2024-05-09T04:54:38.291Z,50.00
2024-05-09T04:56:00.262Z,50.00
2024-05-09T04:56:38.342Z,50.00
2024-05-09T04:57:38.301Z,50.00
2024-05-09T04:58:38.296Z,50.00
2024-05-09T04:59:38.341Z,50.00
2024-05-09T05:00:39.445Z,50.00
2024-05-09T05:01:38.308Z,49.04
2024-05-09T05:02:38.355Z,50.42
2024-05-09T05:03:38.611Z,50.27
2024-05-09T05:04:38.363Z,50.00
2024-05-09T05:05:38.403Z,50.00
2024-05-09T05:06:38.316Z,51.67
2024-05-09T05:07:38.304Z,50.00
2024-05-09T05:08:38.485Z,51.71
2024-05-09T05:09:38.306Z,51.83
2024-05-09T05:10:38.298Z,51.23
2024-05-09T05:11:38.449Z,52.25
2024-05-09T05:12:38.309Z,51.06
2024-05-09T05:13:41.423Z,51.54
2024-05-09T05:14:38.393Z,51.68
2024-05-09T05:15:38.320Z,51.60
2024-05-09T05:16:38.314Z,50.93
2024-05-09T05:17:38.623Z,50.09
2024-05-09T05:18:38.435Z,51.17
2024-05-09T05:19:38.623Z,50.14
2024-05-09T05:20:38.365Z,52.85
2024-05-09T05:21:38.336Z,50.08
2024-05-09T05:22:38.323Z,50.69
2024-05-09T05:23:38.503Z,51.12
2024-05-09T05:24:38.323Z,52.44
2024-05-09T05:25:38.344Z,51.96
2024-05-09T05:26:38.516Z,51.46
2024-05-09T05:27:38.940Z,51.10
2024-05-09T05:28:38.337Z,51.77
2024-05-09T05:29:38.478Z,51.42
2024-05-09T05:30:38.361Z,50.62
2024-05-09T05:31:38.405Z,52.65
2024-05-09T05:32:38.639Z,50.92
2024-05-09T05:33:38.534Z,50.64
2024-05-09T05:34:38.339Z,51.78
2024-05-09T05:35:38.397Z,51.19
2024-05-09T05:36:38.344Z,50.74
2024-05-09T05:37:38.355Z,50.70
2024-05-09T05:38:38.482Z,50.78
2024-05-09T05:39:38.468Z,52.27
2024-05-09T05:40:39.772Z,52.17
2024-05-09T05:41:38.553Z,54.42
2024-05-09T05:42:38.529Z,55.98
2024-05-09T05:43:38.532Z,55.31
2024-05-09T05:44:38.560Z,54.31
2024-05-09T05:45:39.102Z,54.53
2024-05-09T05:46:38.530Z,55.35
2024-05-09T05:47:38.751Z,55.33
2024-05-09T05:48:38.612Z,54.83
2024-05-09T05:49:38.786Z,54.13
2024-05-09T05:50:39.009Z,54.24
2024-05-09T05:51:38.538Z,54.14
2024-05-09T05:52:38.543Z,53.24
2024-05-09T05:53:38.705Z,54.88
2024-05-09T05:54:38.539Z,54.38
2024-05-09T05:55:38.557Z,54.96
2024-05-09T05:56:38.645Z,54.60
2024-05-09T05:57:38.673Z,54.52
2024-05-09T05:58:38.726Z,54.75
2024-05-09T05:59:38.911Z,54.96
2024-05-09T06:00:40.496Z,56.52
2024-05-09T06:01:38.942Z,57.27
2024-05-09T06:02:39.037Z,56.94
2024-05-09T06:03:39.264Z,57.16
2024-05-09T06:04:38.892Z,59.54
2024-05-09T06:05:39.050Z,57.54
2024-05-09T06:06:38.832Z,58.20
2024-05-09T06:07:38.849Z,57.51
2024-05-09T06:08:38.888Z,56.11
2024-05-09T06:09:38.871Z,58.13
2024-05-09T06:10:40.757Z,57.22
2024-05-09T06:11:39.079Z,57.34
2024-05-09T06:12:38.842Z,57.70
2024-05-09T06:13:38.848Z,58.34
2024-05-09T06:14:38.902Z,58.78
2024-05-09T06:15:38.862Z,60.04
2024-05-09T06:16:38.860Z,59.92
2024-05-09T06:17:39.191Z,59.83
2024-05-09T06:18:39.010Z,61.55
2024-05-09T06:19:38.981Z,62.12
2024-05-09T06:20:38.912Z,61.48
2024-05-09T06:21:38.871Z,62.85
2024-05-09T06:22:38.869Z,64.03
2024-05-09T06:23:38.924Z,61.90
2024-05-09T06:24:38.863Z,63.44
2024-05-09T06:25:38.942Z,63.69
2024-05-09T06:26:38.892Z,62.17
2024-05-09T06:27:38.864Z,62.92
2024-05-09T06:28:38.868Z,64.00
2024-05-09T06:29:38.938Z,64.47
2024-05-09T06:30:41.233Z,63.66
2024-05-09T06:31:38.872Z,63.81
2024-05-09T06:32:39.040Z,63.91
2024-05-09T06:33:39.100Z,63.58
2024-05-09T06:34:39.015Z,64.52
2024-05-09T06:35:39.016Z,64.97
2024-05-09T06:36:38.880Z,66.31
2024-05-09T06:37:38.910Z,67.89
2024-05-09T06:38:38.943Z,64.78
2024-05-09T06:39:38.881Z,66.58
2024-05-09T06:40:40.468Z,66.59
2024-05-09T06:41:39.007Z,66.63
2024-05-09T06:42:38.896Z,66.78
2024-05-09T06:43:38.899Z,66.54
2024-05-09T06:44:38.944Z,66.86
2024-05-09T06:45:38.898Z,66.19
2024-05-09T06:46:38.981Z,66.10
2024-05-09T06:47:39.105Z,68.26
2024-05-09T06:48:39.215Z,67.74
2024-05-09T06:49:38.966Z,67.20
2024-05-09T06:50:39.922Z,67.52
2024-05-09T06:51:38.913Z,67.88
2024-05-09T06:52:38.984Z,66.64
2024-05-09T06:53:39.224Z,66.78
2024-05-09T06:54:39.095Z,66.45
2024-05-09T06:55:39.149Z,66.33
2024-05-09T06:56:39.218Z,65.04
2024-05-09T06:57:42.464Z,66.29
2024-05-09T06:58:39.215Z,66.39
2024-05-09T06:59:39.227Z,66.38
2024-05-09T07:00:41.279Z,66.18
2024-05-09T07:01:39.251Z,66.38
2024-05-09T07:02:39.451Z,66.44
2024-05-09T07:03:39.283Z,66.73
2024-05-09T07:04:39.262Z,64.58
2024-05-09T07:05:39.278Z,65.69
2024-05-09T07:06:39.221Z,66.47
2024-05-09T07:07:39.229Z,65.52
2024-05-09T07:08:39.336Z,67.60
2024-05-09T07:09:39.277Z,64.14
2024-05-09T07:10:39.229Z,66.51
2024-05-09T07:11:39.295Z,66.88
2024-05-09T07:12:39.238Z,66.54
2024-05-09T07:13:39.238Z,65.37
2024-05-09T07:14:39.368Z,66.25
2024-05-09T07:15:39.258Z,68.39
2024-05-09T07:16:39.247Z,68.01
2024-05-09T07:17:39.447Z,67.65
2024-05-09T07:18:39.432Z,69.03
2024-05-09T07:19:39.369Z,70.88
2024-05-09T07:20:39.375Z,70.53
2024-05-09T07:21:39.242Z,69.94
2024-05-09T07:22:39.243Z,71.25
2024-05-09T07:23:39.314Z,74.20
2024-05-09T07:24:39.246Z,72.56
2024-05-09T07:25:39.271Z,72.56
2024-05-09T07:26:39.320Z,71.90
2024-05-09T07:27:39.248Z,71.48
2024-05-09T07:28:39.272Z,72.68
2024-05-09T07:29:39.392Z,71.24
2024-05-09T07:30:39.319Z,71.38
2024-05-09T07:31:39.308Z,71.12
2024-05-09T07:32:39.450Z,69.96
2024-05-09T07:33:39.380Z,71.10
2024-05-09T07:34:39.429Z,70.82
2024-05-09T07:35:39.586Z,68.48
2024-05-09T07:36:39.400Z,68.26
2024-05-09T07:37:39.444Z,68.25
2024-05-09T07:38:39.512Z,66.95
2024-05-09T07:39:39.525Z,67.39
2024-05-09T07:40:39.555Z,67.83
2024-05-09T07:41:39.729Z,66.87
2024-05-09T07:42:39.648Z,65.60
2024-05-09T07:43:39.675Z,65.05
2024-05-09T07:44:39.763Z,66.30
2024-05-09T07:45:48.966Z,65.20
2024-05-09T07:47:47.672Z,65.37
2024-05-09T07:49:11.918Z,65.67
2024-05-09T07:53:33.915Z,65.84
2024-05-09T07:53:44.502Z,65.82
2024-05-09T07:54:39.908Z,65.73
2024-05-09T07:55:39.970Z,67.11
2024-05-09T07:56:40.102Z,68.18
2024-05-09T07:57:39.830Z,69.64
2024-05-09T07:58:39.778Z,70.59
2024-05-09T07:59:39.769Z,67.01
2024-05-09T08:00:39.897Z,65.73
2024-05-09T08:01:39.849Z,64.51
2024-05-09T08:02:39.839Z,64.21
2024-05-09T08:03:40.063Z,64.46
2024-05-09T08:04:39.903Z,64.39
2024-05-09T08:05:39.893Z,64.20
2024-05-09T08:06:39.838Z,63.09
2024-05-09T08:07:39.787Z,61.57
2024-05-09T08:08:39.790Z,59.84
2024-05-09T08:09:39.843Z,61.33
2024-05-09T08:10:39.917Z,58.65
2024-05-09T08:11:39.821Z,59.27
2024-05-09T08:12:39.825Z,58.00
2024-05-09T08:13:39.813Z,57.35
2024-05-09T08:14:39.802Z,56.76
2024-05-09T08:15:39.824Z,56.70
2024-05-09T08:16:39.818Z,57.43
2024-05-09T08:17:39.910Z,55.82
2024-05-09T08:18:40.112Z,54.75
2024-05-09T08:19:39.871Z,55.75
2024-05-09T08:20:39.849Z,55.51
2024-05-09T08:21:39.834Z,54.21
2024-05-09T08:22:39.812Z,54.69
2024-05-09T08:23:39.809Z,55.04
2024-05-09T08:24:39.852Z,52.07
2024-05-09T08:25:39.819Z,51.98
2024-05-09T08:26:39.804Z,52.67
2024-05-09T08:27:39.883Z,54.51
2024-05-09T08:28:39.820Z,53.73
2024-05-09T08:29:39.851Z,53.69
2024-05-09T08:30:40.034Z,54.42
2024-05-09T08:31:39.974Z,55.01
2024-05-09T08:32:39.979Z,54.50
2024-05-09T08:34:38.947Z,53.83
2024-05-09T08:35:39.847Z,54.81
2024-05-09T08:36:39.843Z,55.85
2024-05-09T08:37:40.712Z,55.16
2024-05-09T08:38:39.831Z,56.09
2024-05-09T08:39:39.871Z,55.73
2024-05-09T08:40:39.872Z,56.14
2024-05-09T08:41:39.843Z,56.19
2024-05-09T08:42:39.855Z,57.30
2024-05-09T08:43:41.949Z,55.48
2024-05-09T08:44:39.835Z,57.84
2024-05-09T08:45:39.892Z,58.29
2024-05-09T08:46:39.840Z,56.25
2024-05-09T08:47:39.932Z,55.16
2024-05-09T08:48:40.154Z,56.16
2024-05-09T08:49:41.498Z,54.94
2024-05-09T08:50:40.489Z,56.35
2024-05-09T08:51:39.869Z,56.40
2024-05-09T08:52:39.852Z,55.37
2024-05-09T08:53:39.846Z,53.70
2024-05-09T08:54:39.875Z,54.46
2024-05-09T08:55:42.787Z,55.05
2024-05-09T08:56:39.849Z,56.44
2024-05-09T08:57:39.972Z,56.49
2024-05-09T08:58:39.847Z,55.43
2024-05-09T08:59:39.852Z,55.93
2024-05-09T09:00:40.023Z,55.66
2024-05-09T09:01:40.901Z,54.65
2024-05-09T09:02:40.186Z,54.70
2024-05-09T09:03:40.396Z,55.60
2024-05-09T09:04:40.051Z,55.34
2024-05-09T09:06:39.092Z,54.83
2024-05-09T09:07:40.112Z,54.42
2024-05-09T09:08:40.115Z,53.73
2024-05-09T09:09:40.136Z,54.33
2024-05-09T09:10:40.207Z,53.94
2024-05-09T09:11:40.202Z,54.89
2024-05-09T09:12:40.240Z,54.88
2024-05-09T09:13:40.229Z,54.14
2024-05-09T09:14:40.202Z,53.20
2024-05-09T09:15:40.246Z,53.01
2024-05-09T09:16:40.243Z,53.06
2024-05-09T09:17:40.371Z,52.02
2024-05-09T09:18:40.651Z,51.33
2024-05-09T09:19:40.428Z,50.42
2024-05-09T09:20:40.488Z,50.45
2024-05-09T09:21:40.487Z,50.87
2024-05-09T09:22:40.513Z,51.17
2024-05-09T09:23:40.548Z,50.24
2024-05-09T09:24:40.643Z,50.58
2024-05-09T09:25:40.732Z,50.56
2024-05-09T09:26:40.670Z,50.09
2024-05-09T09:27:40.763Z,50.00
2024-05-09T09:28:40.791Z,50.18
2024-05-09T09:29:40.808Z,50.68
2024-05-09T09:30:41.032Z,50.48
2024-05-09T09:31:40.930Z,50.98
2024-05-09T09:32:41.032Z,50.50
2024-05-09T09:33:41.134Z,50.63
2024-05-09T09:34:41.033Z,51.25
2024-05-09T09:35:41.090Z,52.05
2024-05-09T09:36:41.131Z,50.29
2024-05-09T09:37:41.121Z,52.34
2024-05-09T09:38:41.173Z,51.07
2024-05-09T09:39:41.258Z,50.84
2024-05-09T09:40:46.498Z,50.09
2024-05-09T09:41:41.313Z,50.26
2024-05-09T09:42:41.308Z,50.84
2024-05-09T09:43:41.288Z,51.45
2024-05-09T09:44:42.289Z,52.50
2024-05-09T09:45:41.347Z,50.40
2024-05-09T09:46:41.310Z,51.14
2024-05-09T09:47:41.444Z,52.07
2024-05-09T09:48:41.504Z,53.05
2024-05-09T09:49:41.366Z,54.25
2024-05-09T09:50:41.303Z,54.86
2024-05-09T09:51:41.343Z,54.14
2024-05-09T09:52:41.299Z,54.15
2024-05-09T09:53:41.308Z,54.18
2024-05-09T09:54:41.301Z,54.15
2024-05-09T09:55:41.314Z,53.52
2024-05-09T09:56:41.306Z,52.28
2024-05-09T09:57:41.387Z,52.37
2024-05-09T09:58:41.363Z,51.35
2024-05-09T09:59:41.338Z,50.02
2024-05-09T10:00:41.836Z,50.51
2024-05-09T10:01:41.549Z,52.72
2024-05-09T10:02:41.547Z,51.42
2024-05-09T10:03:41.822Z,52.20
2024-05-09T10:04:41.720Z,50.84
2024-05-09T10:05:45.068Z,50.00
2024-05-09T10:06:41.734Z,50.23
2024-05-09T10:07:41.700Z,50.81
2024-05-09T10:08:41.708Z,51.16
2024-05-09T10:09:41.706Z,50.86
2024-05-09T10:10:41.870Z,49.25
2024-05-09T10:12:40.710Z,50.54
2024-05-09T10:13:41.707Z,50.26
2024-05-09T10:14:41.696Z,50.99
2024-05-09T10:15:41.707Z,50.84
2024-05-09T10:16:41.698Z,51.36
2024-05-09T10:17:41.751Z,50.15
2024-05-09T10:18:42.143Z,50.85
2024-05-09T10:19:41.830Z,51.79
2024-05-09T10:20:41.711Z,50.45
2024-05-09T10:21:41.742Z,51.93
2024-05-09T10:22:41.708Z,51.07
2024-05-09T10:23:41.710Z,51.42
2024-05-09T10:24:41.756Z,50.17
2024-05-09T10:25:41.699Z,50.70
2024-05-09T10:26:42.620Z,51.05
2024-05-09T10:27:41.767Z,50.00
2024-05-09T10:28:41.706Z,51.35
2024-05-09T10:29:41.706Z,51.17
2024-05-09T10:30:43.182Z,52.26
2024-05-09T10:31:42.054Z,51.41
2024-05-09T10:32:42.075Z,50.82
2024-05-09T10:33:42.471Z,50.05
2024-05-09T10:34:42.142Z,50.21
2024-05-09T10:35:42.188Z,51.31
2024-05-09T10:36:42.306Z,51.14
2024-05-09T10:37:42.350Z,50.33
2024-05-09T10:38:42.407Z,51.59
2024-05-09T10:39:42.497Z,51.73
2024-05-09T10:40:42.600Z,50.11
2024-05-09T10:41:42.628Z,50.38
2024-05-09T10:42:42.729Z,51.22
2024-05-09T10:43:42.723Z,51.50
2024-05-09T10:44:42.788Z,50.18
2024-05-09T10:45:42.868Z,50.34
2024-05-09T10:46:42.911Z,50.91
2024-05-09T10:47:43.040Z,50.00
2024-05-09T10:48:43.264Z,50.00
2024-05-09T10:49:43.137Z,51.99
2024-05-09T10:50:43.124Z,52.30
2024-05-09T10:51:43.249Z,51.97
2024-05-09T10:52:43.222Z,52.27
2024-05-09T10:53:43.418Z,51.99
2024-05-09T10:54:43.371Z,52.42
2024-05-09T10:55:43.403Z,53.42
2024-05-09T10:56:43.475Z,52.79
2024-05-09T10:57:43.601Z,51.06
2024-05-09T10:58:43.607Z,52.68
2024-05-09T10:59:43.674Z,51.64
2024-05-09T11:00:43.866Z,52.57
2024-05-09T11:01:43.879Z,52.32
2024-05-09T11:02:43.968Z,52.11
2024-05-09T11:03:44.094Z,54.74
2024-05-09T11:04:44.053Z,54.24
2024-05-09T11:05:44.057Z,54.07
2024-05-09T11:06:44.038Z,55.27
2024-05-09T11:07:44.076Z,55.03
2024-05-09T11:08:44.120Z,55.86
2024-05-09T11:09:45.181Z,56.18
2024-05-09T11:10:44.351Z,56.76
2024-05-09T11:11:44.310Z,57.27
2024-05-09T11:12:44.353Z,58.86
2024-05-09T11:13:44.395Z,60.75
2024-05-09T11:14:44.462Z,61.12
2024-05-09T11:15:44.559Z,63.92
2024-05-09T11:16:44.595Z,65.96
2024-05-09T11:17:44.787Z,65.56
2024-05-09T11:18:44.928Z,66.31
2024-05-09T11:19:44.865Z,66.66
2024-05-09T11:20:44.927Z,68.03
2024-05-09T11:21:45.080Z,68.28
2024-05-09T11:22:45.004Z,68.55
2024-05-09T11:23:45.081Z,72.53
2024-05-09T11:24:45.166Z,71.29
2024-05-09T11:25:45.229Z,72.61
2024-05-09T11:26:45.272Z,72.92
2024-05-09T11:27:45.368Z,74.50
2024-05-09T11:28:45.390Z,75.13
2024-05-09T11:29:45.453Z,76.41
2024-05-09T11:30:45.545Z,76.53
2024-05-09T11:31:45.711Z,76.56
2024-05-09T11:32:45.754Z,78.08
2024-05-09T11:33:45.954Z,77.97
2024-05-09T11:34:45.768Z,78.75
2024-05-09T11:35:45.814Z,77.48
2024-05-09T11:36:45.928Z,78.37
2024-05-09T11:37:45.908Z,78.29
2024-05-09T11:38:45.944Z,77.82
2024-05-09T11:39:46.003Z,76.35
2024-05-09T11:40:46.195Z,75.93
2024-05-09T11:41:46.159Z,74.11
2024-05-09T11:42:47.746Z,73.98
2024-05-09T11:43:46.177Z,75.92
2024-05-09T11:44:46.163Z,75.44
2024-05-09T11:45:46.189Z,74.79
2024-05-09T11:46:46.171Z,72.94
2024-05-09T11:47:46.302Z,73.11
2024-05-09T11:48:46.390Z,72.14
2024-05-09T11:49:46.182Z,72.98
2024-05-09T11:50:46.180Z,72.88
2024-05-09T11:51:46.259Z,71.97
2024-05-09T11:52:46.168Z,71.41
2024-05-09T11:53:46.182Z,70.21
2024-05-09T11:54:46.192Z,69.09
2024-05-09T11:55:46.192Z,68.32
2024-05-09T11:56:46.187Z,67.79
2024-05-09T11:57:46.214Z,66.16
2024-05-09T11:58:46.211Z,65.01
2024-05-09T11:59:46.188Z,63.74
2024-05-09T12:00:46.743Z,63.74
2024-05-09T12:01:46.277Z,62.49
2024-05-09T12:02:46.192Z,62.03
2024-05-09T12:03:46.387Z,61.40
2024-05-09T12:04:46.354Z,59.54
2024-05-09T12:05:46.421Z,58.13
2024-05-09T12:06:46.288Z,57.63
2024-05-09T12:07:46.199Z,56.60
2024-05-09T12:08:46.205Z,57.02
2024-05-09T12:09:46.284Z,56.97
2024-05-09T12:10:46.603Z,55.83
2024-05-09T12:11:46.410Z,54.93
2024-05-09T12:12:46.428Z,55.27
2024-05-09T12:13:46.508Z,55.76
2024-05-09T12:14:46.552Z,55.61
2024-05-09T12:15:46.690Z,55.33
2024-05-09T12:16:46.761Z,54.74
2024-05-09T12:17:49.588Z,54.97
2024-05-09T12:18:46.947Z,55.13
2024-05-09T12:19:46.822Z,55.46
2024-05-09T12:20:46.755Z,55.72
2024-05-09T12:21:46.821Z,56.26
2024-05-09T12:22:46.776Z,55.69
2024-05-09T12:23:46.766Z,55.87
2024-05-09T12:24:46.774Z,56.02
2024-05-09T12:25:46.759Z,56.29
2024-05-09T12:26:46.767Z,54.59
2024-05-09T12:27:46.815Z,55.12
2024-05-09T12:28:46.766Z,54.02
2024-05-09T12:29:46.783Z,53.39
2024-05-09T12:30:46.912Z,53.10
2024-05-09T12:31:46.983Z,51.28
2024-05-09T12:32:47.142Z,51.43
2024-05-09T12:33:47.211Z,51.91
2024-05-09T12:34:47.144Z,51.26
2024-05-09T12:35:49.253Z,52.34
2024-05-09T12:36:47.183Z,52.43
2024-05-09T12:37:47.160Z,51.95
2024-05-09T12:38:47.168Z,51.36
2024-05-09T12:39:47.212Z,50.47
2024-05-09T12:40:47.240Z,50.02
2024-05-09T12:41:47.179Z,50.34
2024-05-09T12:42:47.195Z,51.14
2024-05-09T12:43:47.163Z,50.10
2024-05-09T12:44:47.165Z,50.66
2024-05-09T12:45:47.227Z,51.02
2024-05-09T12:46:47.184Z,51.47
2024-05-09T12:47:47.269Z,51.93
2024-05-09T12:48:47.377Z,51.37
2024-05-09T12:49:47.284Z,50.42
2024-05-09T12:50:47.210Z,50.86
2024-05-09T12:51:47.210Z,50.16
2024-05-09T12:52:47.257Z,50.51
2024-05-09T12:53:47.311Z,51.33
2024-05-09T12:54:47.344Z,50.29
2024-05-09T12:55:53.488Z,50.59
2024-05-09T12:56:47.413Z,50.75
2024-05-09T12:57:47.432Z,51.25
2024-05-09T12:58:47.396Z,51.43
2024-05-09T12:59:47.408Z,52.20
2024-05-09T13:00:47.683Z,51.65
2024-05-09T13:01:47.512Z,51.28